Time;durP1;ratioP1;P1;durP2;ratioP2;P2;SDS_P1;SDS_P2;PMS_P1;PMS_P2;Temp;Humidity;BMP_temperature;BMP_pressure;BME280_temperature;BME280_humidity;BME280_pressure;Samples;Min_cycle;Max_cycle;Signal;HPM_P1;HPM_P2
2021/01/25 00:02:03;;;;;;;5.25;3.75;;;;;;;3.65;72.41;99224.78;4951680;28;20063;-81
2021/01/25 00:04:29;;;;;;;6.38;3.72;;;;;;;3.58;71.35;99223.47;4950509;28;20038;-81
2021/01/25 00:06:54;;;;;;;6.28;4.55;;;;;;;3.51;72.31;99235.97;4951773;28;20031;-81
2021/01/25 00:09:20;;;;;;;5.55;4.88;;;;;;;3.55;73.23;99226.25;4949872;28;20031;-81
2021/01/25 00:11:45;;;;;;;9.07;5.35;;;;;;;3.43;73.12;99235.56;4952199;28;20042;-81
2021/01/25 00:14:10;;;;;;;7.57;4.97;;;;;;;3.58;72.71;99244.25;4958168;28;20030;-81
2021/01/25 00:16:36;;;;;;;10.63;6.30;;;;;;;3.43;72.70;99250.31;4970706;28;20031;-81
2021/01/25 00:19:01;;;;;;;9.43;7.03;;;;;;;3.32;73.54;99250.94;4957040;28;20559;-81
2021/01/25 00:21:27;;;;;;;8.38;6.97;;;;;;;3.40;72.80;99255.66;4951400;28;20118;-81
2021/01/25 00:23:52;;;;;;;10.88;7.68;;;;;;;3.33;72.91;99260.38;4952195;28;20062;-81
2021/01/25 00:26:17;;;;;;;13.27;8.48;;;;;;;3.36;73.22;99275.78;4970896;28;20469;-81
2021/01/25 00:28:43;;;;;;;14.05;8.60;;;;;;;3.33;72.82;99270.75;4970650;28;20504;-81
2021/01/25 00:31:08;;;;;;;15.80;9.35;;;;;;;3.43;73.52;99276.25;4970730;28;20027;-81
2021/01/25 00:33:33;;;;;;;13.85;8.85;;;;;;;3.31;72.97;99299.38;4970633;28;20026;-81
2021/01/25 00:35:59;;;;;;;13.25;9.38;;;;;;;3.35;71.53;99300.03;4970516;28;20034;-81
2021/01/25 00:38:24;;;;;;;17.30;9.75;;;;;;;3.18;73.13;99298.41;4963146;28;20023;-81
2021/01/25 00:40:50;;;;;;;17.70;11.20;;;;;;;2.81;73.72;99302.16;4962800;28;20077;-81
2021/01/25 00:43:15;;;;;;;19.40;10.27;;;;;;;3.13;72.64;99306.41;4951307;28;20032;-81
2021/01/25 00:45:40;;;;;;;17.17;10.50;;;;;;;2.78;72.99;99316.97;4951255;28;20077;-81
2021/01/25 00:48:06;;;;;;;17.73;9.75;;;;;;;2.74;72.92;99309.41;4951164;28;20031;-81
2021/01/25 00:50:32;;;;;;;19.92;10.68;;;;;;;2.99;72.81;99319.31;4951031;28;20020;-80
2021/01/25 00:52:57;;;;;;;21.48;10.25;;;;;;;2.97;72.24;99321.97;4951178;28;20038;-81
2021/01/25 00:55:22;;;;;;;13.02;9.70;;;;;;;2.89;72.75;99318.97;4950935;28;20031;-80
2021/01/25 00:57:48;;;;;;;15.45;9.13;;;;;;;2.81;72.31;99325.50;4951149;28;20534;-81
2021/01/25 01:00:14;;;;;;;17.08;8.75;;;;;;;2.86;72.80;99328.66;4950926;28;20066;-81
2021/01/25 01:02:39;;;;;;;15.07;9.02;;;;;;;2.85;71.96;99329.59;4950922;28;20085;-81
2021/01/25 01:05:07;;;;;;;14.07;9.38;;;;;;;2.75;71.02;99345.63;4951091;28;20035;-82
2021/01/25 01:07:33;;;;;;;14.63;9.30;;;;;;;2.57;72.32;99355.19;4950933;28;20035;-81
2021/01/25 01:09:58;;;;;;;17.33;10.07;;;;;;;2.37;73.02;99348.44;4952066;28;20031;-81
2021/01/25 01:12:24;;;;;;;19.45;9.27;;;;;;;2.44;72.20;99366.28;5036404;23;20097;-92
2021/01/25 01:14:49;;;;;;;13.23;8.02;;;;;;;2.47;71.71;99366.97;5071466;28;20079;-91
2021/01/25 01:17:15;;;;;;;14.15;8.88;;;;;;;2.17;72.23;99374.50;5070066;28;20098;-91
2021/01/25 01:19:40;;;;;;;14.73;9.10;;;;;;;2.00;74.32;99377.13;5071464;28;20024;-91
2021/01/25 01:22:06;;;;;;;13.23;9.10;;;;;;;1.88;73.72;99379.38;5082882;28;20020;-91
2021/01/25 01:24:31;;;;;;;13.13;8.57;;;;;;;2.07;74.56;99388.81;5092473;28;20032;-91
2021/01/25 01:26:56;;;;;;;13.90;8.73;;;;;;;2.06;73.46;99390.59;5075200;28;20466;-91
2021/01/25 01:29:22;;;;;;;14.05;8.98;;;;;;;2.01;73.16;99386.53;5074026;28;20127;-91
2021/01/25 01:31:47;;;;;;;17.75;9.68;;;;;;;1.89;73.97;99381.03;5075134;28;20036;-91
2021/01/25 01:34:12;;;;;;;15.43;9.18;;;;;;;1.79;73.77;99388.41;5073790;28;20615;-91
2021/01/25 01:36:38;;;;;;;16.17;9.43;;;;;;;1.92;73.57;99399.03;5073809;28;20028;-91
2021/01/25 01:39:04;;;;;;;18.38;9.63;;;;;;;1.75;73.24;99397.22;5075791;28;20154;-91
2021/01/25 01:41:39;;;;;;;14.43;9.27;;;;;;;1.73;74.06;99399.06;5093844;28;20028;-90
2021/01/25 01:44:11;;;;;;;15.75;9.30;;;;;;;1.64;74.10;99403.81;5093924;28;20024;-91
2021/01/25 01:46:40;;;;;;;15.75;9.70;;;;;;;1.74;72.91;99412.84;5093807;28;20383;-92
2021/01/25 01:49:06;;;;;;;12.07;8.93;;;;;;;1.77;72.69;99420.47;5084321;28;20032;-91
2021/01/25 01:51:31;;;;;;;21.55;9.77;;;;;;;1.82;72.53;99408.16;5073605;28;20020;-91
2021/01/25 01:53:57;;;;;;;15.98;9.13;;;;;;;1.94;71.73;99425.69;5075273;28;20032;-91
2021/01/25 01:56:24;;;;;;;14.80;10.02;;;;;;;1.93;72.09;99415.38;5075093;28;20027;-91
2021/01/25 01:58:49;;;;;;;14.27;8.77;;;;;;;2.01;71.59;99428.78;5073607;28;20032;-92
2021/01/25 02:01:14;;;;;;;19.02;8.20;;;;;;;1.98;70.65;99429.78;5073312;28;20473;-91
2021/01/25 02:03:40;;;;;;;14.10;8.95;;;;;;;2.06;70.32;99447.56;5081868;28;20366;-90
2021/01/25 02:06:07;;;;;;;19.27;9.52;;;;;;;2.04;70.50;99438.19;5094786;28;20020;-91
2021/01/25 02:08:37;;;;;;;13.38;8.70;;;;;;;2.13;69.17;99455.84;5094930;28;20020;-91
2021/01/25 02:11:03;;;;;;;15.23;8.75;;;;;;;2.09;69.95;99452.56;5095276;28;20065;-91
2021/01/25 02:13:30;;;;;;;14.13;8.73;;;;;;;2.05;70.74;99451.03;5092882;28;20020;-91
2021/01/25 02:15:59;;;;;;;15.60;9.18;;;;;;;1.91;71.16;99469.00;5077833;28;20478;-90
2021/01/25 02:18:26;;;;;;;15.57;9.02;;;;;;;2.06;70.43;99472.59;5093319;28;20054;-90
2021/01/25 02:20:52;;;;;;;15.15;9.88;;;;;;;1.97;71.00;99468.69;5094557;28;20035;-91
2021/01/25 02:23:23;;;;;;;17.58;9.40;;;;;;;1.96;71.05;99467.88;5075696;28;20479;-91
2021/01/25 02:26:10;;;;;;;22.48;10.50;;;;;;;1.83;71.94;99471.09;5074166;28;20017;-90
2021/01/25 02:28:37;;;;;;;14.02;8.35;;;;;;;1.77;70.46;99462.69;5072855;28;20097;-91
2021/01/25 02:31:06;;;;;;;13.75;9.80;;;;;;;2.07;69.93;99471.69;5074079;28;20024;-90
2021/01/25 02:33:34;;;;;;;13.50;9.85;;;;;;;2.20;71.21;99479.72;5073748;28;20127;-91
2021/01/25 02:36:00;;;;;;;17.17;10.52;;;;;;;2.22;71.69;99491.66;5075252;28;20282;-90
2021/01/25 02:38:27;;;;;;;16.92;10.35;;;;;;;2.22;71.81;99489.09;5092773;28;20451;-90
2021/01/25 02:40:54;;;;;;;15.18;10.30;;;;;;;2.16;70.16;99494.56;5094067;28;20106;-90
2021/01/25 02:43:20;;;;;;;18.00;9.75;;;;;;;2.09;70.75;99498.34;5094241;28;20020;-91
2021/01/25 02:45:47;;;;;;;15.98;10.27;;;;;;;2.03;70.80;99496.03;5094148;28;20067;-91
2021/01/25 02:48:13;;;;;;;17.55;9.60;;;;;;;1.99;71.01;99503.13;5080338;28;20534;-90
2021/01/25 02:50:39;;;;;;;15.35;9.88;;;;;;;1.99;71.31;99503.13;5073984;28;20036;-90
2021/01/25 02:53:04;;;;;;;15.70;9.98;;;;;;;1.92;70.21;99499.97;5072480;28;20021;-91
2021/01/25 02:55:33;;;;;;;13.32;9.95;;;;;;;1.93;71.08;99509.41;5080621;28;20020;-90
2021/01/25 02:57:59;;;;;;;17.08;9.75;;;;;;;1.88;71.46;99503.63;5073796;28;20082;-91
2021/01/25 03:00:24;;;;;;;17.10;10.10;;;;;;;1.92;72.27;99523.28;5072203;28;20484;-90
2021/01/25 03:02:51;;;;;;;16.42;10.13;;;;;;;1.91;71.76;99525.94;5085635;28;20035;-92
2021/01/25 03:05:17;;;;;;;16.77;10.68;;;;;;;1.78;71.20;99517.91;5092873;28;20024;-91
2021/01/25 03:07:43;;;;;;;18.15;10.80;;;;;;;1.62;70.97;99525.53;5092836;28;20093;-91
2021/01/25 03:10:09;;;;;;;18.13;10.73;;;;;;;1.74;71.28;99529.31;5093677;28;20028;-90
2021/01/25 03:12:34;;;;;;;15.30;10.93;;;;;;;1.78;71.24;99531.69;5092905;28;20036;-90
2021/01/25 03:15:00;;;;;;;16.10;10.20;;;;;;;1.75;70.88;99543.91;5092760;28;20020;-91
2021/01/25 03:17:25;;;;;;;17.30;10.50;;;;;;;1.79;70.84;99548.06;5093597;28;20020;-91
2021/01/25 03:19:51;;;;;;;20.67;11.15;;;;;;;1.75;71.08;99547.34;5093556;28;20042;-91
2021/01/25 03:22:16;;;;;;;19.75;11.07;;;;;;;1.87;70.91;99551.13;5074738;28;20367;-90
2021/01/25 03:24:41;;;;;;;14.65;9.88;;;;;;;1.76;71.07;99549.03;5078757;28;20063;-90
2021/01/25 03:27:07;;;;;;;15.35;9.75;;;;;;;1.83;71.95;99559.09;5073141;28;20024;-91
2021/01/25 03:29:33;;;;;;;20.55;11.38;;;;;;;1.81;71.97;99556.59;5073176;28;20106;-90
2021/01/25 03:31:59;;;;;;;20.88;10.48;;;;;;;1.76;71.52;99559.38;5080755;28;20114;-91
2021/01/25 03:34:24;;;;;;;18.95;10.63;;;;;;;1.77;71.84;99558.47;5093186;28;20371;-90
2021/01/25 03:36:49;;;;;;;13.85;9.85;;;;;;;1.30;72.88;99566.56;5093398;28;20023;-91
2021/01/25 03:39:15;;;;;;;17.70;10.73;;;;;;;1.24;73.44;99561.66;5092486;28;20024;-91
2021/01/25 03:41:40;;;;;;;13.05;9.32;;;;;;;1.18;73.74;99567.97;5091829;28;20158;-90
2021/01/25 03:44:06;;;;;;;17.77;10.70;;;;;;;1.17;74.10;99571.44;5091491;28;20056;-90
2021/01/25 03:46:31;;;;;;;16.25;10.35;;;;;;;1.14;74.44;99566.41;5087318;28;20118;-90
2021/01/25 03:48:57;;;;;;;15.55;10.52;;;;;;;1.08;74.27;99565.81;5073053;28;20062;-90
2021/01/25 03:51:22;;;;;;;15.68;9.93;;;;;;;1.11;73.99;99576.88;5072678;28;20028;-90
2021/01/25 03:53:48;;;;;;;20.25;12.35;;;;;;;1.06;74.52;99570.22;5072666;28;20024;-90
2021/01/25 03:56:14;;;;;;;16.20;11.20;;;;;;;1.04;74.25;99575.44;5072406;28;20024;-89
2021/01/25 03:58:40;;;;;;;20.13;12.25;;;;;;;1.05;74.06;99592.66;5072615;28;20536;-89
2021/01/25 04:01:06;;;;;;;19.83;11.63;;;;;;;0.94;74.43;99594.84;5076831;28;20115;-90
2021/01/25 04:03:31;;;;;;;21.52;10.93;;;;;;;0.85;73.97;99596.06;5092702;28;20016;-90
2021/01/25 04:05:57;;;;;;;19.83;11.85;;;;;;;0.92;73.73;99602.66;5092665;28;20028;-90
2021/01/25 04:08:22;;;;;;;19.35;11.25;;;;;;;0.80;73.74;99595.41;5091528;28;20509;-90
2021/01/25 04:10:47;;;;;;;18.83;12.93;;;;;;;0.78;74.02;99589.47;5092588;28;20055;-90
2021/01/25 04:13:13;;;;;;;23.45;12.43;;;;;;;0.94;74.03;99602.59;5092427;28;20446;-90
2021/01/25 04:15:38;;;;;;;16.88;11.05;;;;;;;0.89;73.30;99612.28;5091466;28;20027;-90
2021/01/25 04:18:04;;;;;;;21.17;12.68;;;;;;;0.91;74.12;99613.03;5092602;28;20043;-89
2021/01/25 04:20:29;;;;;;;20.83;12.70;;;;;;;0.91;74.52;99616.50;5091090;28;20096;-90
2021/01/25 04:22:54;;;;;;;24.02;11.07;;;;;;;0.88;74.00;99624.34;5090922;28;20538;-90
2021/01/25 04:25:20;;;;;;;21.38;11.45;;;;;;;0.85;73.84;99626.22;5091014;28;20452;-90
2021/01/25 04:27:45;;;;;;;15.90;10.73;;;;;;;0.82;74.31;99632.38;5088278;28;20051;-90
2021/01/25 04:30:11;;;;;;;19.50;11.02;;;;;;;0.82;74.05;99640.13;5087603;28;20024;-89
2021/01/25 04:32:40;;;;;;;19.15;11.77;;;;;;;1.02;73.39;99636.72;5090867;28;20023;-89
2021/01/25 04:35:11;;;;;;;20.73;12.50;;;;;;;1.16;72.68;99642.16;5092163;28;20028;-90
2021/01/25 04:37:37;;;;;;;18.37;11.63;;;;;;;1.25;72.71;99650.47;5091066;28;20355;-89
2021/01/25 04:40:07;;;;;;;19.42;13.25;;;;;;;1.27;72.62;99656.41;5090766;28;20024;-90
2021/01/25 04:42:33;;;;;;;22.77;13.20;;;;;;;0.97;73.16;99660.19;5030733;22;20042;-81
2021/01/25 04:45:00;;;;;;;22.10;13.20;;;;;;;0.76;73.93;99648.94;4969717;28;20031;-80
2021/01/25 04:47:26;;;;;;;20.77;11.90;;;;;;;0.33;72.97;99660.94;4970263;28;20031;-81
2021/01/25 04:49:52;;;;;;;21.73;12.48;;;;;;;0.39;74.37;99665.91;4970372;28;20027;-81
2021/01/25 04:52:18;;;;;;;19.60;11.65;;;;;;;0.44;74.07;99670.88;4970126;28;20053;-81
2021/01/25 04:54:46;;;;;;;17.98;11.10;;;;;;;0.51;73.73;99667.13;4970307;28;20397;-81
2021/01/25 04:57:14;;;;;;;18.10;10.82;;;;;;;0.48;72.66;99666.44;4960281;28;20028;-81
2021/01/25 04:59:41;;;;;;;17.23;11.77;;;;;;;0.45;73.51;99666.56;4950873;28;20060;-81
2021/01/25 05:02:06;;;;;;;19.00;12.50;;;;;;;0.47;73.68;99663.00;4952240;28;20111;-81
2021/01/25 05:04:33;;;;;;;24.65;15.05;;;;;;;0.52;75.06;99658.50;4950926;28;20393;-81
2021/01/25 05:06:58;;;;;;;17.48;11.85;;;;;;;0.74;73.19;99662.84;4950930;28;20106;-80
2021/01/25 05:09:23;;;;;;;24.27;12.52;;;;;;;0.86;72.63;99664.94;4953372;28;20122;-80
2021/01/25 05:12:03;;;;;;;16.05;11.00;;;;;;;0.91;72.66;99657.00;4950810;28;20027;-81
2021/01/25 05:14:43;;;;;;;18.30;10.80;;;;;;;0.92;72.18;99669.84;4950839;28;20539;-80
2021/01/25 05:17:14;;;;;;;20.17;11.63;;;;;;;0.95;72.19;99674.91;4951005;28;20391;-80
2021/01/25 05:19:42;;;;;;;14.50;11.10;;;;;;;0.90;72.34;99678.56;4951171;28;20339;-81
2021/01/25 05:22:15;;;;;;;18.38;10.23;;;;;;;0.87;72.42;99679.56;4950729;28;20390;-81
2021/01/25 05:25:09;;;;;;;17.45;10.05;;;;;;;0.77;72.25;99686.81;4962454;28;20544;-80
2021/01/25 05:27:34;;;;;;;14.43;9.57;;;;;;;0.75;71.03;99686.03;4972264;28;20079;-81
2021/01/25 05:30:11;;;;;;;12.27;8.70;;;;;;;0.72;70.85;99696.50;4969655;28;20117;-80
2021/01/25 05:32:52;;;;;;;13.63;8.95;;;;;;;0.83;71.89;99690.91;4968218;28;20034;-81
2021/01/25 05:35:21;;;;;;;12.77;8.80;;;;;;;0.76;72.51;99689.47;4969813;28;20031;-81
2021/01/25 05:38:08;;;;;;;11.45;7.97;;;;;;;0.78;71.64;99701.41;4969763;28;20399;-81
2021/01/25 05:40:35;;;;;;;12.93;8.82;;;;;;;0.82;71.88;99707.31;4931286;28;20044;-80
2021/01/25 05:43:10;;;;;;;14.98;9.10;;;;;;;0.69;72.52;99706.09;5051698;23;20051;-88
2021/01/25 05:45:35;;;;;;;13.30;9.02;;;;;;;0.68;72.34;99707.84;5071094;28;20067;-88
2021/01/25 05:48:00;;;;;;;13.70;9.20;;;;;;;0.36;71.89;99711.66;5071060;28;20052;-89
2021/01/25 05:50:38;;;;;;;14.93;8.65;;;;;;;0.59;72.29;99724.56;5069622;28;20449;-89
2021/01/25 05:53:09;;;;;;;15.85;9.65;;;;;;;0.61;72.51;99728.81;5067576;28;20029;-88
2021/01/25 05:55:35;;;;;;;18.20;10.00;;;;;;;0.57;72.99;99718.59;5049573;28;20029;-88
2021/01/25 05:58:02;;;;;;;14.40;9.38;;;;;;;0.48;73.03;99715.53;5049671;28;20021;-88
2021/01/25 06:00:28;;;;;;;16.90;9.38;;;;;;;0.54;73.11;99725.63;5049323;28;20501;-88
2021/01/25 06:02:54;;;;;;;14.70;9.60;;;;;;;0.60;73.56;99725.38;5050875;28;20021;-89
2021/01/25 06:05:34;;;;;;;16.35;9.68;;;;;;;0.90;72.82;99717.34;5050833;28;20052;-88
2021/01/25 06:08:18;;;;;;;12.95;8.02;;;;;;;1.00;71.75;99723.84;5056530;28;20058;-89
2021/01/25 06:10:53;;;;;;;16.95;8.73;;;;;;;0.93;71.19;99725.00;5074516;28;20100;-88
2021/01/25 06:13:22;;;;;;;12.82;8.70;;;;;;;1.10;71.39;99721.72;5072982;28;20020;-89
2021/01/25 06:15:50;;;;;;;11.43;8.52;;;;;;;0.70;71.59;99728.47;5072255;28;20025;-89
2021/01/25 06:18:18;;;;;;;17.50;8.60;;;;;;;0.64;72.20;99737.28;5054147;28;20074;-90
2021/01/25 06:20:45;;;;;;;12.40;7.93;;;;;;;0.61;72.92;99724.47;5053148;28;20107;-89
2021/01/25 06:23:10;;;;;;;12.70;7.80;;;;;;;0.81;72.29;99733.19;5086481;28;20541;-88
2021/01/25 06:25:37;;;;;;;11.35;7.15;;;;;;;0.91;72.13;99737.09;5072865;28;20024;-89
2021/01/25 06:28:02;;;;;;;11.90;7.55;;;;;;;0.91;71.95;99742.28;5070974;28;20023;-90
2021/01/25 06:30:29;;;;;;;13.13;7.10;;;;;;;0.86;71.60;99741.63;5054122;28;20025;-89
2021/01/25 06:32:54;;;;;;;11.00;6.50;;;;;;;0.92;71.82;99751.72;5052941;28;20013;-90
2021/01/25 06:35:20;;;;;;;10.52;7.30;;;;;;;0.85;71.87;99755.44;5054233;28;20429;-90
2021/01/25 06:37:57;;;;;;;13.38;7.95;;;;;;;0.75;72.72;99775.63;5054415;28;20551;-90
2021/01/25 06:40:29;;;;;;;10.80;7.40;;;;;;;0.79;71.98;99754.78;5052612;28;20025;-90
2021/01/25 06:42:55;;;;;;;8.25;6.82;;;;;;;0.88;72.43;99773.44;5054920;28;20025;-88
2021/01/25 06:45:23;;;;;;;15.05;7.00;;;;;;;0.91;72.16;99771.56;5052463;28;20032;-90
2021/01/25 06:47:49;;;;;;;9.77;6.38;;;;;;;0.87;72.35;99774.31;5073033;28;20036;-89
2021/01/25 06:50:15;;;;;;;12.65;7.22;;;;;;;0.75;72.64;99775.63;5079328;28;20036;-89
2021/01/25 06:52:40;;;;;;;12.23;7.28;;;;;;;0.77;72.15;99774.69;5077878;28;20021;-90
2021/01/25 06:55:08;;;;;;;9.38;5.72;;;;;;;0.80;71.92;99771.13;5077563;28;20099;-90
2021/01/25 06:57:35;;;;;;;7.70;5.45;;;;;;;0.83;71.54;99778.78;5079631;28;20390;-90
2021/01/25 07:00:07;;;;;;;8.15;5.32;;;;;;;0.92;71.73;99783.59;5081962;28;20025;-90
2021/01/25 07:02:33;;;;;;;10.68;5.53;;;;;;;0.89;71.31;99785.44;5071748;28;20032;-91
2021/01/25 07:04:58;;;;;;;10.95;5.75;;;;;;;0.99;71.62;99799.72;5064733;28;20049;-90
2021/01/25 07:07:30;;;;;;;7.57;4.70;;;;;;;0.99;71.77;99804.88;5070541;28;20035;-90
2021/01/25 07:10:00;;;;;;;7.80;4.45;;;;;;;0.72;70.48;99814.50;5087315;28;20064;-90
2021/01/25 07:12:26;;;;;;;11.20;4.50;;;;;;;0.71;70.90;99815.41;5095842;28;20025;-91
2021/01/25 07:14:53;;;;;;;5.30;3.75;;;;;;;0.74;71.67;99818.72;5093355;28;20039;-91
2021/01/25 07:17:18;;;;;;;5.57;3.33;;;;;;;0.59;70.07;99806.34;5093086;28;20084;-91
2021/01/25 07:19:44;;;;;;;5.45;3.15;;;;;;;0.72;71.35;99805.00;5083895;28;20448;-91
2021/01/25 07:22:10;;;;;;;5.60;3.17;;;;;;;0.66;70.54;99796.66;5067880;28;20032;-91
2021/01/25 07:24:38;;;;;;;4.45;3.22;;;;;;;0.83;70.92;99817.56;5085428;28;20025;-92
2021/01/25 07:27:05;;;;;;;6.28;3.60;;;;;;;0.65;70.91;99815.63;5072282;28;20054;-91
2021/01/25 07:29:31;;;;;;;3.90;2.80;;;;;;;0.73;69.88;99824.81;5073405;28;20051;-92
2021/01/25 07:32:05;;;;;;;4.75;2.97;;;;;;;0.81;70.34;99810.72;5073608;28;20021;-93
2021/01/25 07:34:33;;;;;;;7.43;3.22;;;;;;;0.97;70.46;99848.06;5072555;28;20078;-91
2021/01/25 07:36:58;;;;;;;5.72;3.05;;;;;;;0.98;70.65;99836.78;5072097;28;20082;-91
2021/01/25 07:39:24;;;;;;;4.78;2.70;;;;;;;0.97;70.22;99848.06;5070796;28;20032;-91
2021/01/25 07:41:50;;;;;;;3.92;2.85;;;;;;;1.11;70.13;99850.97;5080010;22;20049;-80
2021/01/25 07:44:15;;;;;;;2.53;2.33;;;;;;;1.15;69.79;99856.84;5055731;28;20029;-80
2021/01/25 07:46:44;;;;;;;5.82;2.67;;;;;;;1.15;70.80;99859.44;5051925;28;20060;-83
2021/01/25 07:49:10;;;;;;;7.60;2.63;;;;;;;1.01;69.49;99857.38;5050201;28;20391;-79
2021/01/25 07:51:37;;;;;;;4.25;1.95;;;;;;;1.01;70.94;99870.31;5050225;28;20053;-79
2021/01/25 07:54:04;;;;;;;4.63;2.33;;;;;;;0.92;70.57;99868.06;5031994;28;20025;-79
2021/01/25 07:56:30;;;;;;;4.40;2.15;;;;;;;0.94;70.04;99879.19;5051155;28;20033;-78
2021/01/25 07:59:07;;;;;;;3.70;1.88;;;;;;;0.78;69.75;99879.72;5052407;28;20032;-79
2021/01/25 08:01:41;;;;;;;2.88;2.33;;;;;;;0.73;71.68;99881.66;5050770;28;20029;-79
2021/01/25 08:04:11;;;;;;;9.63;2.00;;;;;;;0.79;71.12;99896.94;5043146;28;20418;-79
2021/01/25 08:06:37;;;;;;;4.32;2.10;;;;;;;1.00;70.98;99899.63;5047502;28;20021;-78
2021/01/25 08:09:05;;;;;;;5.10;2.15;;;;;;;0.85;70.20;99907.94;5046528;28;20025;-79
2021/01/25 08:11:32;;;;;;;2.95;1.88;;;;;;;0.77;70.07;99903.91;5050785;28;20108;-79
2021/01/25 08:14:01;;;;;;;4.15;1.90;;;;;;;0.72;71.09;99910.97;5050400;28;20028;-78
2021/01/25 08:16:34;;;;;;;5.95;2.38;;;;;;;0.82;70.83;99913.22;5046716;28;21286;-78
2021/01/25 08:19:10;;;;;;;2.45;1.85;;;;;;;0.86;70.05;99918.22;5050485;28;20017;-78
2021/01/25 08:21:40;;;;;;;2.75;2.13;;;;;;;1.12;70.64;99929.38;5054689;28;20556;-78
2021/01/25 08:24:07;;;;;;;3.83;2.17;;;;;;;1.23;69.78;99922.06;5050870;28;20115;-78
2021/01/25 08:26:33;;;;;;;6.43;2.22;;;;;;;1.14;70.08;99933.56;5050100;28;20054;-78
2021/01/25 08:29:03;;;;;;;4.35;2.55;;;;;;;1.17;69.92;99941.22;5050435;28;20029;-78
2021/01/25 08:31:37;;;;;;;3.83;2.55;;;;;;;1.12;69.85;99943.13;5050659;28;20159;-79
2021/01/25 08:34:15;;;;;;;7.00;2.42;;;;;;;1.10;69.39;99950.09;5049878;28;20075;-78
2021/01/25 08:36:41;;;;;;;6.78;3.50;;;;;;;1.31;70.56;99943.31;5050814;28;20032;-77
2021/01/25 08:39:17;;;;;;;5.85;3.08;;;;;;;1.25;70.00;99960.81;5051827;28;20021;-77
2021/01/25 08:41:52;;;;;;;4.80;2.90;;;;;;;1.31;70.54;99956.25;5039835;28;20052;-77
2021/01/25 08:44:21;;;;;;;5.75;2.08;;;;;;;1.38;70.46;99949.94;5030597;28;20037;-77
2021/01/25 08:46:46;;;;;;;3.00;2.00;;;;;;;1.49;69.37;99959.88;5047310;28;20033;-76
2021/01/25 08:49:17;;;;;;;4.72;2.10;;;;;;;1.65;69.95;99972.25;5051175;28;20024;-76
2021/01/25 08:52:03;;;;;;;4.00;2.53;;;;;;;1.57;69.65;99968.19;5051003;28;20482;-76
2021/01/25 08:54:32;;;;;;;4.03;2.53;;;;;;;1.32;70.11;99965.69;5050923;28;20063;-81
2021/01/25 08:56:59;;;;;;;5.63;2.00;;;;;;;1.53;70.71;99976.13;5047333;28;20414;-76
2021/01/25 08:59:37;;;;;;;6.40;2.60;;;;;;;1.88;69.72;99973.97;5037316;28;20056;-76
2021/01/25 09:02:35;;;;;;;5.22;2.28;;;;;;;2.08;69.46;99974.00;5049363;28;20032;-76
2021/01/25 09:05:00;;;;;;;4.47;2.50;;;;;;;1.90;70.16;99977.31;5017378;28;20116;-79
2021/01/25 09:07:25;;;;;;;3.22;2.17;;;;;;;1.75;69.71;99970.97;5051118;28;20128;-78
2021/01/25 09:09:51;;;;;;;3.60;2.30;;;;;;;1.93;69.35;99979.78;5051286;28;20029;-78
2021/01/25 09:12:18;;;;;;;6.35;2.85;;;;;;;1.92;68.63;99978.09;5044672;28;20094;-78
2021/01/25 09:14:44;;;;;;;6.50;2.45;;;;;;;2.15;69.02;99977.19;5049844;28;20109;-77
2021/01/25 09:17:11;;;;;;;5.43;2.33;;;;;;;2.21;69.31;99978.69;5051404;28;20517;-78
2021/01/25 09:19:38;;;;;;;8.23;2.88;;;;;;;2.24;69.11;99992.34;5050442;28;20021;-78
2021/01/25 09:22:09;;;;;;;5.75;2.53;;;;;;;2.44;69.52;99986.38;5033975;28;20542;-78
2021/01/25 09:24:35;;;;;;;;;;;;;;;2.75;67.57;99988.53;5051058;28;20462;-77
2021/01/25 09:27:01;;;;;;;11.88;3.33;;;;;;;2.52;68.57;99999.84;5050764;28;20024;-77
2021/01/25 09:29:27;;;;;;;7.85;2.22;;;;;;;2.80;68.05;99997.84;5050786;28;20503;-78
2021/01/25 09:31:52;;;;;;;5.88;2.58;;;;;;;2.85;68.47;99999.34;5050023;28;20055;-78
2021/01/25 09:34:18;;;;;;;6.10;2.50;;;;;;;3.16;67.59;100001.47;5050617;28;20029;-77
2021/01/25 09:36:43;;;;;;;8.75;3.25;;;;;;;3.29;67.25;100003.53;5050211;28;20021;-78
2021/01/25 09:39:09;;;;;;;4.75;1.95;;;;;;;3.39;67.16;99997.00;5061951;28;20021;-77
2021/01/25 09:41:36;;;;;;;4.38;2.65;;;;;;;3.92;65.69;100003.25;5051325;28;20402;-79
2021/01/25 09:44:03;;;;;;;4.78;2.42;;;;;;;3.99;65.31;100007.25;5053451;28;20041;-78
2021/01/25 09:46:29;;;;;;;4.97;2.70;;;;;;;3.63;66.26;100015.81;5043556;28;20032;-79
2021/01/25 09:48:54;;;;;;;4.95;2.55;;;;;;;4.39;64.21;100009.72;5054850;28;20021;-79
2021/01/25 09:51:19;;;;;;;4.32;2.60;;;;;;;4.85;65.78;100010.84;5053967;28;20497;-79
2021/01/25 09:53:45;;;;;;;7.72;2.97;;;;;;;5.38;63.01;100006.41;5049493;28;20025;-77
2021/01/25 09:56:10;;;;;;;6.93;2.45;;;;;;;5.69;58.81;100005.59;5054439;28;20032;-78
2021/01/25 09:58:36;;;;;;;6.03;2.50;;;;;;;5.98;61.07;100016.22;5051829;28;20490;-77
2021/01/25 10:01:05;;;;;;;5.32;2.58;;;;;;;6.06;61.03;100018.41;5049957;28;20048;-77
2021/01/25 10:03:31;;;;;;;5.07;2.80;;;;;;;6.13;60.10;100020.59;5041074;28;20134;-76
2021/01/25 10:05:56;;;;;;;3.67;2.22;;;;;;;6.48;59.07;100019.53;5053430;28;20479;-77
2021/01/25 10:08:22;;;;;;;5.22;2.70;;;;;;;6.50;60.11;100025.50;5052118;28;20475;-77
2021/01/25 10:10:47;;;;;;;8.32;2.38;;;;;;;7.23;58.95;100022.97;5053426;28;20044;-77
2021/01/25 10:13:13;;;;;;;7.05;2.28;;;;;;;6.88;59.33;100022.44;5053402;28;20032;-79
2021/01/25 10:15:38;;;;;;;3.58;2.13;;;;;;;8.02;53.68;100020.75;5052511;28;20091;-79
2021/01/25 10:18:03;;;;;;;3.83;1.90;;;;;;;9.27;54.24;100026.50;5053657;28;20037;-77
2021/01/25 10:20:29;;;;;;;6.00;2.28;;;;;;;9.95;50.85;100027.03;5054284;28;20700;-78
2021/01/25 10:22:55;;;;;;;4.22;2.00;;;;;;;10.61;50.59;100030.97;5052819;28;20037;-78
2021/01/25 10:25:22;;;;;;;6.15;2.00;;;;;;;11.14;47.95;100021.78;5048965;28;20021;-79
2021/01/25 10:27:47;;;;;;;5.13;1.75;;;;;;;11.27;48.09;100023.34;5071421;28;20051;-78
2021/01/25 10:30:15;;;;;;;4.43;1.60;;;;;;;12.12;45.98;100035.16;5032773;28;20471;-78
2021/01/25 10:32:40;;;;;;;4.72;1.83;;;;;;;12.92;44.98;100039.19;5033817;28;20026;-78
2021/01/25 10:35:06;;;;;;;4.65;1.83;;;;;;;11.84;47.08;100050.50;5047498;28;20040;-79
2021/01/25 10:37:32;;;;;;;3.83;1.75;;;;;;;13.16;42.64;100048.63;5051412;28;20033;-79
2021/01/25 10:39:58;;;;;;;4.90;2.20;;;;;;;13.69;43.81;100051.97;5025837;28;20040;-79
2021/01/25 10:42:23;;;;;;;3.40;2.00;;;;;;;13.65;42.71;100057.66;5046098;28;20572;-78
2021/01/25 10:44:48;;;;;;;5.18;2.10;;;;;;;12.40;45.33;100059.25;5052409;28;20024;-78
2021/01/25 10:47:18;;;;;;;5.63;2.65;;;;;;;13.54;43.36;100060.38;5052896;28;20116;-78
2021/01/25 10:49:49;;;;;;;4.22;2.05;;;;;;;13.08;43.71;100071.19;5045645;28;20797;-78
2021/01/25 10:52:16;;;;;;;5.22;2.80;;;;;;;13.81;41.95;100073.00;5053279;28;20426;-79
2021/01/25 10:54:42;;;;;;;3.38;1.70;;;;;;;13.82;42.00;100070.22;5055645;28;20583;-79
2021/01/25 10:57:08;;;;;;;4.75;2.55;;;;;;;13.88;41.87;100064.41;5054466;28;20484;-80
2021/01/25 10:59:34;;;;;;;4.60;2.30;;;;;;;14.07;42.65;100073.34;5040648;28;20021;-80
2021/01/25 11:02:00;;;;;;;4.85;2.20;;;;;;;14.32;43.00;100072.03;5046005;28;20059;-78
2021/01/25 11:04:25;;;;;;;4.93;2.20;;;;;;;15.45;40.08;100073.22;5042869;28;20025;-78
2021/01/25 11:06:51;;;;;;;5.38;1.95;;;;;;;15.41;39.09;100085.06;5050342;28;20367;-78
2021/01/25 11:09:17;;;;;;;9.13;2.00;;;;;;;14.94;38.84;100075.25;5044791;28;20049;-79
2021/01/25 11:13:56;;;;;;;6.32;2.95;;;;;;;14.08;42.11;100090.88;5067519;28;20391;-80
2021/01/25 11:16:21;;;;;;;8.27;3.05;;;;;;;14.45;40.74;100088.44;5066296;28;20032;-78
2021/01/25 11:18:48;;;;;;;5.53;2.60;;;;;;;15.42;40.50;100092.88;5066618;28;20055;-80
2021/01/25 11:21:13;;;;;;;4.80;2.30;;;;;;;14.67;40.20;100094.44;5054792;28;20477;-80
2021/01/25 11:23:38;;;;;;;6.57;2.58;;;;;;;13.53;43.79;100093.00;5058283;28;20029;-80
2021/01/25 11:26:04;;;;;;;8.05;2.70;;;;;;;13.65;42.39;100105.13;5061025;28;20048;-80
2021/01/25 11:28:29;;;;;;;5.88;2.10;;;;;;;14.22;42.95;100103.69;5060157;28;20430;-80
2021/01/25 11:30:55;;;;;;;7.28;1.90;;;;;;;14.23;43.42;100105.34;5056798;28;20047;-83
2021/01/25 11:33:20;;;;;;;5.82;1.90;;;;;;;13.97;42.91;100109.44;5063703;28;20123;-82
2021/01/25 11:35:45;;;;;;;7.57;2.17;;;;;;;14.18;41.48;100112.84;5061617;28;20028;-81